sensor_id;sensor_type;location;lat;lon;timestamp;P1;durP1;ratioP1;P2;durP2;ratioP2
62582;SDS011;48641;51.676;5.808;2023-12-20T00:01:00;6.22;;;2.08;;
62582;SDS011;48641;51.676;5.808;2023-12-20T00:03:26;6.00;;;2.20;;
62582;SDS011;48641;51.676;5.808;2023-12-20T00:05:52;6.22;;;1.80;;
62582;SDS011;48641;51.676;5.808;2023-12-20T00:08:18;5.15;;;2.00;;
62582;SDS011;48641;51.676;5.808;2023-12-20T00:10:43;6.18;;;1.83;;
62582;SDS011;48641;51.676;5.808;2023-12-20T00:13:09;4.85;;;1.90;;
62582;SDS011;48641;51.676;5.808;2023-12-20T00:15:35;4.82;;;1.63;;
62582;SDS011;48641;51.676;5.808;2023-12-20T00:18:01;4.40;;;1.63;;
62582;SDS011;48641;51.676;5.808;2023-12-20T00:20:27;5.43;;;1.95;;
62582;SDS011;48641;51.676;5.808;2023-12-20T00:22:56;4.80;;;1.85;;
62582;SDS011;48641;51.676;5.808;2023-12-20T00:25:23;4.15;;;1.90;;
62582;SDS011;48641;51.676;5.808;2023-12-20T00:27:49;4.70;;;1.70;;
62582;SDS011;48641;51.676;5.808;2023-12-20T00:30:14;3.53;;;1.42;;
62582;SDS011;48641;51.676;5.808;2023-12-20T00:32:40;4.03;;;1.40;;
62582;SDS011;48641;51.676;5.808;2023-12-20T00:35:11;4.22;;;1.70;;
62582;SDS011;48641;51.676;5.808;2023-12-20T00:37:40;5.70;;;1.83;;
62582;SDS011;48641;51.676;5.808;2023-12-20T00:40:06;4.30;;;1.52;;
62582;SDS011;48641;51.676;5.808;2023-12-20T00:42:32;3.47;;;1.40;;
62582;SDS011;48641;51.676;5.808;2023-12-20T00:44:58;5.82;;;1.70;;
62582;SDS011;48641;51.676;5.808;2023-12-20T00:47:24;4.25;;;1.80;;
62582;SDS011;48641;51.676;5.808;2023-12-20T00:49:50;3.33;;;1.60;;
62582;SDS011;48641;51.676;5.808;2023-12-20T00:52:15;4.00;;;1.60;;
62582;SDS011;48641;51.676;5.808;2023-12-20T00:54:42;5.07;;;1.50;;
62582;SDS011;48641;51.676;5.808;2023-12-20T00:57:08;3.72;;;1.80;;
62582;SDS011;48641;51.676;5.808;2023-12-20T00:59:34;4.85;;;1.60;;
62582;SDS011;48641;51.676;5.808;2023-12-20T01:01:59;4.15;;;1.50;;
62582;SDS011;48641;51.676;5.808;2023-12-20T01:04:25;4.07;;;1.38;;
62582;SDS011;48641;51.676;5.808;2023-12-20T01:06:51;5.75;;;1.85;;
62582;SDS011;48641;51.676;5.808;2023-12-20T01:09:17;3.47;;;1.40;;
62582;SDS011;48641;51.676;5.808;2023-12-20T01:11:43;3.17;;;1.40;;
62582;SDS011;48641;51.676;5.808;2023-12-20T01:14:09;5.40;;;1.80;;
62582;SDS011;48641;51.676;5.808;2023-12-20T01:16:35;5.07;;;1.63;;
62582;SDS011;48641;51.676;5.808;2023-12-20T01:19:00;5.38;;;1.50;;
62582;SDS011;48641;51.676;5.808;2023-12-20T01:21:26;5.15;;;1.40;;
62582;SDS011;48641;51.676;5.808;2023-12-20T01:23:51;3.70;;;1.52;;
62582;SDS011;48641;51.676;5.808;2023-12-20T01:26:17;4.93;;;1.58;;
62582;SDS011;48641;51.676;5.808;2023-12-20T01:28:42;4.32;;;1.60;;
62582;SDS011;48641;51.676;5.808;2023-12-20T01:31:08;4.95;;;1.60;;
62582;SDS011;48641;51.676;5.808;2023-12-20T01:33:34;4.53;;;1.30;;
62582;SDS011;48641;51.676;5.808;2023-12-20T01:36:00;5.30;;;2.13;;
62582;SDS011;48641;51.676;5.808;2023-12-20T01:38:25;4.18;;;1.20;;
62582;SDS011;48641;51.676;5.808;2023-12-20T01:40:51;3.58;;;1.33;;
62582;SDS011;48641;51.676;5.808;2023-12-20T01:43:19;4.95;;;1.45;;
62582;SDS011;48641;51.676;5.808;2023-12-20T01:45:44;4.32;;;1.30;;
62582;SDS011;48641;51.676;5.808;2023-12-20T01:48:10;3.53;;;1.20;;
62582;SDS011;48641;51.676;5.808;2023-12-20T01:50:36;4.32;;;1.52;;
62582;SDS011;48641;51.676;5.808;2023-12-20T01:53:03;4.20;;;1.40;;
62582;SDS011;48641;51.676;5.808;2023-12-20T01:55:31;4.65;;;1.30;;
62582;SDS011;48641;51.676;5.808;2023-12-20T01:57:58;4.50;;;1.60;;
62582;SDS011;48641;51.676;5.808;2023-12-20T02:00:25;4.95;;;1.48;;
62582;SDS011;48641;51.676;5.808;2023-12-20T02:02:53;2.28;;;1.20;;
62582;SDS011;48641;51.676;5.808;2023-12-20T02:05:21;4.95;;;1.25;;
62582;SDS011;48641;51.676;5.808;2023-12-20T02:07:48;2.42;;;1.00;;
62582;SDS011;48641;51.676;5.808;2023-12-20T02:10:14;4.55;;;1.20;;
62582;SDS011;48641;51.676;5.808;2023-12-20T02:12:41;4.78;;;1.30;;
62582;SDS011;48641;51.676;5.808;2023-12-20T02:15:06;3.88;;;1.30;;
62582;SDS011;48641;51.676;5.808;2023-12-20T02:17:32;4.38;;;1.80;;
62582;SDS011;48641;51.676;5.808;2023-12-20T02:19:58;4.40;;;1.60;;
62582;SDS011;48641;51.676;5.808;2023-12-20T02:22:24;2.78;;;1.00;;
62582;SDS011;48641;51.676;5.808;2023-12-20T02:24:49;3.15;;;1.10;;
62582;SDS011;48641;51.676;5.808;2023-12-20T02:27:15;4.43;;;1.17;;
62582;SDS011;48641;51.676;5.808;2023-12-20T02:29:42;3.33;;;1.08;;
62582;SDS011;48641;51.676;5.808;2023-12-20T02:32:08;3.33;;;1.10;;
62582;SDS011;48641;51.676;5.808;2023-12-20T02:34:33;4.68;;;1.25;;
62582;SDS011;48641;51.676;5.808;2023-12-20T02:36:59;3.97;;;1.20;;
62582;SDS011;48641;51.676;5.808;2023-12-20T02:39:25;3.88;;;1.17;;
62582;SDS011;48641;51.676;5.808;2023-12-20T02:41:51;2.95;;;1.00;;
62582;SDS011;48641;51.676;5.808;2023-12-20T02:44:19;3.20;;;0.82;;
62582;SDS011;48641;51.676;5.808;2023-12-20T02:46:45;2.90;;;1.05;;
62582;SDS011;48641;51.676;5.808;2023-12-20T02:49:10;3.70;;;1.13;;
62582;SDS011;48641;51.676;5.808;2023-12-20T02:51:36;4.68;;;1.00;;
62582;SDS011;48641;51.676;5.808;2023-12-20T02:54:03;4.05;;;1.10;;
62582;SDS011;48641;51.676;5.808;2023-12-20T02:56:29;3.88;;;1.10;;
62582;SDS011;48641;51.676;5.808;2023-12-20T02:58:55;3.33;;;1.02;;
62582;SDS011;48641;51.676;5.808;2023-12-20T03:01:20;4.38;;;1.23;;
62582;SDS011;48641;51.676;5.808;2023-12-20T03:03:46;2.95;;;0.93;;
62582;SDS011;48641;51.676;5.808;2023-12-20T03:06:11;3.97;;;1.58;;
62582;SDS011;48641;51.676;5.808;2023-12-20T03:08:42;2.60;;;0.80;;
62582;SDS011;48641;51.676;5.808;2023-12-20T03:11:08;4.20;;;1.00;;
62582;SDS011;48641;51.676;5.808;2023-12-20T03:13:33;3.70;;;1.40;;
62582;SDS011;48641;51.676;5.808;2023-12-20T03:15:59;4.82;;;0.90;;
62582;SDS011;48641;51.676;5.808;2023-12-20T03:18:24;5.68;;;1.10;;
62582;SDS011;48641;51.676;5.808;2023-12-20T03:20:52;4.43;;;1.15;;
62582;SDS011;48641;51.676;5.808;2023-12-20T03:23:18;5.55;;;1.40;;
62582;SDS011;48641;51.676;5.808;2023-12-20T03:25:44;5.43;;;1.23;;
62582;SDS011;48641;51.676;5.808;2023-12-20T03:28:09;4.82;;;1.52;;
62582;SDS011;48641;51.676;5.808;2023-12-20T03:30:35;3.22;;;1.02;;
62582;SDS011;48641;51.676;5.808;2023-12-20T03:33:00;4.88;;;1.10;;
62582;SDS011;48641;51.676;5.808;2023-12-20T03:35:26;4.38;;;1.00;;
62582;SDS011;48641;51.676;5.808;2023-12-20T03:37:51;3.00;;;1.00;;
62582;SDS011;48641;51.676;5.808;2023-12-20T03:40:17;4.90;;;1.13;;
62582;SDS011;48641;51.676;5.808;2023-12-20T03:42:42;4.68;;;0.85;;
62582;SDS011;48641;51.676;5.808;2023-12-20T03:45:08;3.63;;;1.15;;
62582;SDS011;48641;51.676;5.808;2023-12-20T03:47:34;3.47;;;1.00;;
62582;SDS011;48641;51.676;5.808;2023-12-20T03:50:00;2.92;;;1.00;;
62582;SDS011;48641;51.676;5.808;2023-12-20T03:52:25;2.67;;;0.80;;
62582;SDS011;48641;51.676;5.808;2023-12-20T03:54:53;4.60;;;1.17;;
62582;SDS011;48641;51.676;5.808;2023-12-20T03:57:19;3.70;;;1.20;;
62582;SDS011;48641;51.676;5.808;2023-12-20T03:59:44;3.08;;;0.90;;
62582;SDS011;48641;51.676;5.808;2023-12-20T04:02:12;4.38;;;1.00;;
62582;SDS011;48641;51.676;5.808;2023-12-20T04:04:37;3.05;;;0.95;;
62582;SDS011;48641;51.676;5.808;2023-12-20T04:07:03;4.45;;;1.23;;
62582;SDS011;48641;51.676;5.808;2023-12-20T04:09:28;4.07;;;1.00;;
62582;SDS011;48641;51.676;5.808;2023-12-20T04:11:54;3.38;;;0.90;;
62582;SDS011;48641;51.676;5.808;2023-12-20T04:14:19;4.68;;;1.15;;
62582;SDS011;48641;51.676;5.808;2023-12-20T04:16:45;4.03;;;1.20;;
62582;SDS011;48641;51.676;5.808;2023-12-20T04:19:10;3.67;;;0.85;;
62582;SDS011;48641;51.676;5.808;2023-12-20T04:21:36;3.15;;;0.93;;
62582;SDS011;48641;51.676;5.808;2023-12-20T04:24:02;3.67;;;1.10;;
62582;SDS011;48641;51.676;5.808;2023-12-20T04:26:27;2.55;;;0.93;;
62582;SDS011;48641;51.676;5.808;2023-12-20T04:28:54;4.15;;;0.80;;
62582;SDS011;48641;51.676;5.808;2023-12-20T04:31:20;5.43;;;1.02;;
62582;SDS011;48641;51.676;5.808;2023-12-20T04:33:45;4.05;;;0.73;;
62582;SDS011;48641;51.676;5.808;2023-12-20T04:36:11;4.28;;;1.08;;
62582;SDS011;48641;51.676;5.808;2023-12-20T04:38:36;3.58;;;0.90;;
62582;SDS011;48641;51.676;5.808;2023-12-20T04:41:02;3.65;;;0.93;;
62582;SDS011;48641;51.676;5.808;2023-12-20T04:43:28;3.22;;;0.93;;
62582;SDS011;48641;51.676;5.808;2023-12-20T04:45:54;4.28;;;0.88;;
62582;SDS011;48641;51.676;5.808;2023-12-20T04:48:21;4.85;;;0.95;;
62582;SDS011;48641;51.676;5.808;2023-12-20T04:50:46;4.15;;;1.00;;
62582;SDS011;48641;51.676;5.808;2023-12-20T04:53:12;3.25;;;1.00;;
62582;SDS011;48641;51.676;5.808;2023-12-20T04:55:38;5.03;;;0.93;;
62582;SDS011;48641;51.676;5.808;2023-12-20T04:58:04;3.30;;;0.90;;
62582;SDS011;48641;51.676;5.808;2023-12-20T05:00:29;4.45;;;1.08;;
62582;SDS011;48641;51.676;5.808;2023-12-20T05:02:55;3.97;;;1.15;;
62582;SDS011;48641;51.676;5.808;2023-12-20T05:05:20;3.00;;;0.90;;
62582;SDS011;48641;51.676;5.808;2023-12-20T05:07:46;3.10;;;1.08;;
62582;SDS011;48641;51.676;5.808;2023-12-20T05:10:11;6.95;;;1.20;;
62582;SDS011;48641;51.676;5.808;2023-12-20T05:12:37;4.32;;;0.95;;
62582;SDS011;48641;51.676;5.808;2023-12-20T05:15:03;5.85;;;1.20;;
62582;SDS011;48641;51.676;5.808;2023-12-20T05:17:30;4.22;;;1.00;;
62582;SDS011;48641;51.676;5.808;2023-12-20T05:19:56;3.22;;;0.70;;
62582;SDS011;48641;51.676;5.808;2023-12-20T05:22:22;3.13;;;0.90;;
62582;SDS011;48641;51.676;5.808;2023-12-20T05:24:47;3.97;;;0.80;;
62582;SDS011;48641;51.676;5.808;2023-12-20T05:27:13;4.93;;;1.00;;
62582;SDS011;48641;51.676;5.808;2023-12-20T05:29:38;5.53;;;0.98;;
62582;SDS011;48641;51.676;5.808;2023-12-20T05:32:04;4.95;;;1.00;;
62582;SDS011;48641;51.676;5.808;2023-12-20T05:34:30;5.40;;;1.02;;
62582;SDS011;48641;51.676;5.808;2023-12-20T05:36:57;5.45;;;1.00;;
62582;SDS011;48641;51.676;5.808;2023-12-20T05:39:23;2.25;;;0.82;;
62582;SDS011;48641;51.676;5.808;2023-12-20T05:41:48;3.28;;;0.90;;
62582;SDS011;48641;51.676;5.808;2023-12-20T05:44:14;4.38;;;1.20;;
62582;SDS011;48641;51.676;5.808;2023-12-20T05:46:39;3.20;;;0.73;;
62582;SDS011;48641;51.676;5.808;2023-12-20T05:49:05;3.08;;;1.00;;
62582;SDS011;48641;51.676;5.808;2023-12-20T05:51:31;3.70;;;1.33;;
62582;SDS011;48641;51.676;5.808;2023-12-20T05:53:57;3.75;;;0.93;;
62582;SDS011;48641;51.676;5.808;2023-12-20T05:56:23;4.30;;;1.13;;
62582;SDS011;48641;51.676;5.808;2023-12-20T05:58:49;3.15;;;0.90;;
62582;SDS011;48641;51.676;5.808;2023-12-20T06:01:14;5.35;;;1.00;;
62582;SDS011;48641;51.676;5.808;2023-12-20T06:03:42;4.95;;;0.80;;
62582;SDS011;48641;51.676;5.808;2023-12-20T06:06:08;3.28;;;1.00;;
62582;SDS011;48641;51.676;5.808;2023-12-20T06:08:34;4.95;;;1.17;;
62582;SDS011;48641;51.676;5.808;2023-12-20T06:11:00;7.18;;;1.10;;
62582;SDS011;48641;51.676;5.808;2023-12-20T06:13:26;2.75;;;0.88;;
62582;SDS011;48641;51.676;5.808;2023-12-20T06:15:52;2.92;;;0.90;;
62582;SDS011;48641;51.676;5.808;2023-12-20T06:18:19;3.20;;;0.90;;
62582;SDS011;48641;51.676;5.808;2023-12-20T06:20:44;3.92;;;1.00;;
62582;SDS011;48641;51.676;5.808;2023-12-20T06:23:10;5.90;;;1.35;;
62582;SDS011;48641;51.676;5.808;2023-12-20T06:25:36;3.78;;;0.98;;
62582;SDS011;48641;51.676;5.808;2023-12-20T06:28:01;4.97;;;1.52;;
62582;SDS011;48641;51.676;5.808;2023-12-20T06:30:27;7.75;;;1.27;;
62582;SDS011;48641;51.676;5.808;2023-12-20T06:32:53;5.72;;;1.30;;
62582;SDS011;48641;51.676;5.808;2023-12-20T06:35:19;4.95;;;1.08;;
62582;SDS011;48641;51.676;5.808;2023-12-20T06:37:45;3.63;;;0.80;;
62582;SDS011;48641;51.676;5.808;2023-12-20T06:40:11;7.28;;;1.15;;
62582;SDS011;48641;51.676;5.808;2023-12-20T06:42:37;5.97;;;0.98;;
62582;SDS011;48641;51.676;5.808;2023-12-20T06:45:03;6.90;;;1.50;;
62582;SDS011;48641;51.676;5.808;2023-12-20T06:47:29;4.80;;;1.00;;
62582;SDS011;48641;51.676;5.808;2023-12-20T06:49:55;5.40;;;1.02;;
62582;SDS011;48641;51.676;5.808;2023-12-20T06:52:20;5.72;;;0.90;;
62582;SDS011;48641;51.676;5.808;2023-12-20T06:54:46;3.28;;;0.80;;
62582;SDS011;48641;51.676;5.808;2023-12-20T06:57:11;4.22;;;0.93;;
62582;SDS011;48641;51.676;5.808;2023-12-20T06:59:40;7.30;;;2.40;;
62582;SDS011;48641;51.676;5.808;2023-12-20T07:02:06;5.47;;;1.23;;
62582;SDS011;48641;51.676;5.808;2023-12-20T07:04:33;5.15;;;1.00;;
62582;SDS011;48641;51.676;5.808;2023-12-20T07:06:58;4.45;;;1.83;;
62582;SDS011;48641;51.676;5.808;2023-12-20T07:09:25;5.13;;;1.65;;
62582;SDS011;48641;51.676;5.808;2023-12-20T07:11:52;4.47;;;0.90;;
62582;SDS011;48641;51.676;5.808;2023-12-20T07:14:18;4.15;;;0.90;;
62582;SDS011;48641;51.676;5.808;2023-12-20T07:16:43;4.53;;;0.90;;
62582;SDS011;48641;51.676;5.808;2023-12-20T07:19:09;4.85;;;0.98;;
62582;SDS011;48641;51.676;5.808;2023-12-20T07:21:34;3.35;;;0.90;;
62582;SDS011;48641;51.676;5.808;2023-12-20T07:24:00;2.45;;;0.77;;
62582;SDS011;48641;51.676;5.808;2023-12-20T07:26:26;5.15;;;0.95;;
62582;SDS011;48641;51.676;5.808;2023-12-20T07:28:51;4.30;;;0.90;;
62582;SDS011;48641;51.676;5.808;2023-12-20T07:31:17;5.10;;;1.00;;
62582;SDS011;48641;51.676;5.808;2023-12-20T07:33:42;4.07;;;0.90;;
62582;SDS011;48641;51.676;5.808;2023-12-20T07:36:08;3.58;;;0.80;;
62582;SDS011;48641;51.676;5.808;2023-12-20T07:38:34;5.00;;;1.10;;
62582;SDS011;48641;51.676;5.808;2023-12-20T07:40:59;7.28;;;1.20;;
62582;SDS011;48641;51.676;5.808;2023-12-20T07:43:25;5.80;;;1.05;;
62582;SDS011;48641;51.676;5.808;2023-12-20T07:45:51;4.93;;;1.10;;
62582;SDS011;48641;51.676;5.808;2023-12-20T07:48:16;3.17;;;0.93;;
62582;SDS011;48641;51.676;5.808;2023-12-20T07:50:42;9.05;;;1.30;;
62582;SDS011;48641;51.676;5.808;2023-12-20T07:53:07;5.53;;;1.17;;
62582;SDS011;48641;51.676;5.808;2023-12-20T07:55:33;15.13;;;1.67;;
62582;SDS011;48641;51.676;5.808;2023-12-20T07:57:59;12.43;;;2.20;;
62582;SDS011;48641;51.676;5.808;2023-12-20T08:00:25;10.93;;;1.58;;
62582;SDS011;48641;51.676;5.808;2023-12-20T08:02:51;11.18;;;2.03;;
62582;SDS011;48641;51.676;5.808;2023-12-20T08:05:17;12.38;;;1.33;;
62582;SDS011;48641;51.676;5.808;2023-12-20T08:07:42;10.38;;;1.33;;
62582;SDS011;48641;51.676;5.808;2023-12-20T08:10:08;8.23;;;1.42;;
62582;SDS011;48641;51.676;5.808;2023-12-20T08:12:34;11.60;;;1.58;;
62582;SDS011;48641;51.676;5.808;2023-12-20T08:14:59;6.88;;;1.60;;
62582;SDS011;48641;51.676;5.808;2023-12-20T08:17:26;8.75;;;1.48;;
62582;SDS011;48641;51.676;5.808;2023-12-20T08:19:52;6.78;;;1.52;;
62582;SDS011;48641;51.676;5.808;2023-12-20T08:22:17;11.60;;;1.38;;
62582;SDS011;48641;51.676;5.808;2023-12-20T08:24:43;6.05;;;1.30;;
62582;SDS011;48641;51.676;5.808;2023-12-20T08:27:09;8.27;;;1.30;;
62582;SDS011;48641;51.676;5.808;2023-12-20T08:29:34;10.05;;;1.60;;
62582;SDS011;48641;51.676;5.808;2023-12-20T08:32:00;8.80;;;1.25;;
62582;SDS011;48641;51.676;5.808;2023-12-20T08:34:26;6.35;;;1.20;;
62582;SDS011;48641;51.676;5.808;2023-12-20T08:36:52;12.02;;;1.30;;
62582;SDS011;48641;51.676;5.808;2023-12-20T08:39:17;4.03;;;1.00;;
62582;SDS011;48641;51.676;5.808;2023-12-20T08:41:43;5.13;;;1.02;;
62582;SDS011;48641;51.676;5.808;2023-12-20T08:44:09;5.75;;;1.65;;
62582;SDS011;48641;51.676;5.808;2023-12-20T08:46:35;6.43;;;1.13;;
62582;SDS011;48641;51.676;5.808;2023-12-20T08:49:00;9.57;;;1.55;;
62582;SDS011;48641;51.676;5.808;2023-12-20T08:51:26;9.20;;;1.60;;
62582;SDS011;48641;51.676;5.808;2023-12-20T08:53:52;5.70;;;1.05;;
62582;SDS011;48641;51.676;5.808;2023-12-20T08:56:18;6.05;;;1.20;;
62582;SDS011;48641;51.676;5.808;2023-12-20T08:58:45;5.85;;;1.38;;
62582;SDS011;48641;51.676;5.808;2023-12-20T09:01:12;7.25;;;1.00;;
62582;SDS011;48641;51.676;5.808;2023-12-20T09:03:38;7.57;;;1.63;;
62582;SDS011;48641;51.676;5.808;2023-12-20T09:06:07;5.13;;;1.20;;
62582;SDS011;48641;51.676;5.808;2023-12-20T09:08:32;4.18;;;1.05;;
62582;SDS011;48641;51.676;5.808;2023-12-20T09:10:59;5.40;;;1.23;;
62582;SDS011;48641;51.676;5.808;2023-12-20T09:13:25;5.10;;;1.00;;
62582;SDS011;48641;51.676;5.808;2023-12-20T09:15:53;5.85;;;1.23;;
62582;SDS011;48641;51.676;5.808;2023-12-20T09:18:20;4.57;;;1.10;;
62582;SDS011;48641;51.676;5.808;2023-12-20T09:20:45;6.45;;;1.20;;
62582;SDS011;48641;51.676;5.808;2023-12-20T09:23:11;5.55;;;0.88;;
62582;SDS011;48641;51.676;5.808;2023-12-20T09:25:37;4.20;;;0.90;;
62582;SDS011;48641;51.676;5.808;2023-12-20T09:28:02;6.75;;;1.27;;
62582;SDS011;48641;51.676;5.808;2023-12-20T09:30:28;5.07;;;1.10;;
62582;SDS011;48641;51.676;5.808;2023-12-20T09:32:54;4.03;;;0.90;;
62582;SDS011;48641;51.676;5.808;2023-12-20T09:35:20;5.15;;;1.02;;
62582;SDS011;48641;51.676;5.808;2023-12-20T09:37:46;4.88;;;1.27;;
62582;SDS011;48641;51.676;5.808;2023-12-20T09:40:12;5.65;;;0.90;;
62582;SDS011;48641;51.676;5.808;2023-12-20T09:42:50;6.60;;;1.50;;
62582;SDS011;48641;51.676;5.808;2023-12-20T09:45:35;7.35;;;1.00;;
62582;SDS011;48641;51.676;5.808;2023-12-20T09:48:01;6.07;;;1.13;;
62582;SDS011;48641;51.676;5.808;2023-12-20T09:50:30;6.07;;;1.20;;
62582;SDS011;48641;51.676;5.808;2023-12-20T09:52:57;6.30;;;1.00;;
62582;SDS011;48641;51.676;5.808;2023-12-20T09:55:24;6.30;;;1.08;;
62582;SDS011;48641;51.676;5.808;2023-12-20T09:57:50;4.22;;;1.00;;
62582;SDS011;48641;51.676;5.808;2023-12-20T10:00:16;6.50;;;1.30;;
62582;SDS011;48641;51.676;5.808;2023-12-20T10:02:45;5.13;;;1.20;;
62582;SDS011;48641;51.676;5.808;2023-12-20T10:05:26;4.95;;;1.13;;
62582;SDS011;48641;51.676;5.808;2023-12-20T10:07:58;4.55;;;1.08;;
62582;SDS011;48641;51.676;5.808;2023-12-20T10:10:24;6.05;;;1.20;;
62582;SDS011;48641;51.676;5.808;2023-12-20T10:13:09;5.75;;;1.25;;
62582;SDS011;48641;51.676;5.808;2023-12-20T10:15:36;4.80;;;1.30;;
62582;SDS011;48641;51.676;5.808;2023-12-20T10:18:03;5.13;;;0.95;;
62582;SDS011;48641;51.676;5.808;2023-12-20T10:20:29;4.35;;;1.00;;
62582;SDS011;48641;51.676;5.808;2023-12-20T10:22:56;4.78;;;1.02;;
62582;SDS011;48641;51.676;5.808;2023-12-20T10:25:23;4.38;;;0.82;;
62582;SDS011;48641;51.676;5.808;2023-12-20T10:27:49;6.13;;;1.15;;
62582;SDS011;48641;51.676;5.808;2023-12-20T10:30:16;3.58;;;1.00;;
62582;SDS011;48641;51.676;5.808;2023-12-20T10:32:41;5.55;;;1.40;;
62582;SDS011;48641;51.676;5.808;2023-12-20T10:35:08;6.22;;;1.63;;
62582;SDS011;48641;51.676;5.808;2023-12-20T10:37:37;7.63;;;1.25;;
62582;SDS011;48641;51.676;5.808;2023-12-20T10:40:03;10.20;;;1.52;;
62582;SDS011;48641;51.676;5.808;2023-12-20T10:42:31;7.30;;;1.42;;
62582;SDS011;48641;51.676;5.808;2023-12-20T10:44:58;9.02;;;1.15;;
62582;SDS011;48641;51.676;5.808;2023-12-20T10:47:24;11.93;;;1.30;;
62582;SDS011;48641;51.676;5.808;2023-12-20T10:49:52;7.32;;;1.27;;
62582;SDS011;48641;51.676;5.808;2023-12-20T10:52:18;6.07;;;1.30;;
62582;SDS011;48641;51.676;5.808;2023-12-20T10:54:47;10.88;;;1.30;;
62582;SDS011;48641;51.676;5.808;2023-12-20T10:57:13;8.77;;;1.40;;
62582;SDS011;48641;51.676;5.808;2023-12-20T10:59:43;10.27;;;1.50;;
62582;SDS011;48641;51.676;5.808;2023-12-20T11:02:12;7.80;;;1.10;;
62582;SDS011;48641;51.676;5.808;2023-12-20T11:10:16;23.92;;;2.30;;
62582;SDS011;48641;51.676;5.808;2023-12-20T11:15:18;17.70;;;2.40;;
62582;SDS011;48641;51.676;5.808;2023-12-20T11:17:44;12.50;;;2.10;;
62582;SDS011;48641;51.676;5.808;2023-12-20T11:20:11;24.00;;;1.73;;
62582;SDS011;48641;51.676;5.808;2023-12-20T11:22:37;16.48;;;2.17;;
62582;SDS011;48641;51.676;5.808;2023-12-20T11:27:33;12.23;;;2.25;;
62582;SDS011;48641;51.676;5.808;2023-12-20T11:29:59;13.55;;;1.58;;
62582;SDS011;48641;51.676;5.808;2023-12-20T11:32:31;23.80;;;2.47;;
62582;SDS011;48641;51.676;5.808;2023-12-20T11:35:02;10.73;;;1.63;;
62582;SDS011;48641;51.676;5.808;2023-12-20T11:37:43;14.10;;;1.77;;
62582;SDS011;48641;51.676;5.808;2023-12-20T11:40:13;12.98;;;2.00;;
62582;SDS011;48641;51.676;5.808;2023-12-20T11:42:49;30.77;;;2.72;;
62582;SDS011;48641;51.676;5.808;2023-12-20T11:45:16;12.05;;;1.50;;
62582;SDS011;48641;51.676;5.808;2023-12-20T11:50:15;9.85;;;1.58;;
62582;SDS011;48641;51.676;5.808;2023-12-20T11:52:43;15.63;;;1.63;;
62582;SDS011;48641;51.676;5.808;2023-12-20T11:55:09;10.70;;;1.50;;
62582;SDS011;48641;51.676;5.808;2023-12-20T11:57:35;9.60;;;1.45;;
62582;SDS011;48641;51.676;5.808;2023-12-20T12:00:02;7.68;;;1.33;;
62582;SDS011;48641;51.676;5.808;2023-12-20T12:02:29;11.50;;;1.58;;
62582;SDS011;48641;51.676;5.808;2023-12-20T12:04:55;8.15;;;1.17;;
62582;SDS011;48641;51.676;5.808;2023-12-20T12:07:21;9.93;;;1.33;;
62582;SDS011;48641;51.676;5.808;2023-12-20T12:09:47;8.23;;;2.25;;
62582;SDS011;48641;51.676;5.808;2023-12-20T12:12:13;8.75;;;1.38;;
62582;SDS011;48641;51.676;5.808;2023-12-20T12:14:39;11.80;;;1.65;;
62582;SDS011;48641;51.676;5.808;2023-12-20T12:17:09;10.18;;;1.60;;
62582;SDS011;48641;51.676;5.808;2023-12-20T12:19:36;6.47;;;1.67;;
62582;SDS011;48641;51.676;5.808;2023-12-20T12:22:09;8.32;;;1.70;;
62582;SDS011;48641;51.676;5.808;2023-12-20T12:24:43;8.13;;;1.23;;
62582;SDS011;48641;51.676;5.808;2023-12-20T12:27:09;7.55;;;1.02;;
62582;SDS011;48641;51.676;5.808;2023-12-20T12:29:35;8.52;;;1.20;;
62582;SDS011;48641;51.676;5.808;2023-12-20T12:32:08;7.70;;;1.40;;
62582;SDS011;48641;51.676;5.808;2023-12-20T12:34:35;9.88;;;1.63;;
62582;SDS011;48641;51.676;5.808;2023-12-20T12:37:01;10.57;;;1.45;;
62582;SDS011;48641;51.676;5.808;2023-12-20T12:39:28;7.57;;;1.55;;
62582;SDS011;48641;51.676;5.808;2023-12-20T12:41:55;9.27;;;1.58;;
62582;SDS011;48641;51.676;5.808;2023-12-20T12:44:21;8.05;;;1.13;;
62582;SDS011;48641;51.676;5.808;2023-12-20T12:46:48;7.95;;;1.30;;
62582;SDS011;48641;51.676;5.808;2023-12-20T12:49:18;8.23;;;1.30;;
62582;SDS011;48641;51.676;5.808;2023-12-20T12:51:47;8.60;;;1.80;;
62582;SDS011;48641;51.676;5.808;2023-12-20T12:54:13;7.82;;;1.20;;
62582;SDS011;48641;51.676;5.808;2023-12-20T12:56:40;7.50;;;1.40;;
62582;SDS011;48641;51.676;5.808;2023-12-20T12:59:06;9.50;;;1.17;;
62582;SDS011;48641;51.676;5.808;2023-12-20T13:01:32;6.55;;;0.95;;
62582;SDS011;48641;51.676;5.808;2023-12-20T13:03:57;6.32;;;1.13;;
62582;SDS011;48641;51.676;5.808;2023-12-20T13:06:23;4.93;;;1.10;;
62582;SDS011;48641;51.676;5.808;2023-12-20T13:08:48;4.90;;;1.30;;
62582;SDS011;48641;51.676;5.808;2023-12-20T13:11:15;4.55;;;0.90;;
62582;SDS011;48641;51.676;5.808;2023-12-20T13:13:40;5.93;;;1.08;;
62582;SDS011;48641;51.676;5.808;2023-12-20T13:16:06;5.40;;;1.30;;
62582;SDS011;48641;51.676;5.808;2023-12-20T13:18:32;6.68;;;1.20;;
62582;SDS011;48641;51.676;5.808;2023-12-20T13:20:58;5.22;;;1.10;;
62582;SDS011;48641;51.676;5.808;2023-12-20T13:23:23;6.47;;;1.10;;
62582;SDS011;48641;51.676;5.808;2023-12-20T13:25:49;6.95;;;1.10;;
62582;SDS011;48641;51.676;5.808;2023-12-20T13:28:15;7.60;;;1.10;;
62582;SDS011;48641;51.676;5.808;2023-12-20T13:30:40;7.95;;;1.27;;
62582;SDS011;48641;51.676;5.808;2023-12-20T13:33:06;5.32;;;1.05;;
62582;SDS011;48641;51.676;5.808;2023-12-20T13:35:32;3.55;;;0.98;;
62582;SDS011;48641;51.676;5.808;2023-12-20T13:37:59;5.93;;;1.00;;
62582;SDS011;48641;51.676;5.808;2023-12-20T13:40:25;5.47;;;1.05;;
62582;SDS011;48641;51.676;5.808;2023-12-20T13:42:51;6.95;;;1.20;;
62582;SDS011;48641;51.676;5.808;2023-12-20T13:45:17;4.95;;;1.05;;
62582;SDS011;48641;51.676;5.808;2023-12-20T13:47:43;5.80;;;1.02;;
62582;SDS011;48641;51.676;5.808;2023-12-20T13:50:09;5.00;;;0.95;;
62582;SDS011;48641;51.676;5.808;2023-12-20T13:52:34;6.45;;;1.13;;
62582;SDS011;48641;51.676;5.808;2023-12-20T13:55:00;4.18;;;1.17;;
62582;SDS011;48641;51.676;5.808;2023-12-20T13:57:26;4.82;;;1.00;;
62582;SDS011;48641;51.676;5.808;2023-12-20T13:59:53;4.75;;;1.20;;
62582;SDS011;48641;51.676;5.808;2023-12-20T14:02:19;5.75;;;1.20;;
62582;SDS011;48641;51.676;5.808;2023-12-20T14:04:45;5.65;;;1.33;;
62582;SDS011;48641;51.676;5.808;2023-12-20T14:07:10;4.80;;;1.00;;
62582;SDS011;48641;51.676;5.808;2023-12-20T14:09:36;4.88;;;1.10;;
62582;SDS011;48641;51.676;5.808;2023-12-20T14:12:02;6.97;;;1.48;;
62582;SDS011;48641;51.676;5.808;2023-12-20T14:14:28;4.70;;;1.10;;
62582;SDS011;48641;51.676;5.808;2023-12-20T14:16:53;4.82;;;1.05;;
62582;SDS011;48641;51.676;5.808;2023-12-20T14:19:19;7.18;;;1.27;;
62582;SDS011;48641;51.676;5.808;2023-12-20T14:21:44;6.60;;;1.30;;
62582;SDS011;48641;51.676;5.808;2023-12-20T14:24:13;4.38;;;1.23;;
62582;SDS011;48641;51.676;5.808;2023-12-20T14:26:41;5.47;;;1.47;;
62582;SDS011;48641;51.676;5.808;2023-12-20T14:29:07;4.20;;;1.08;;
62582;SDS011;48641;51.676;5.808;2023-12-20T14:31:33;6.25;;;1.23;;
62582;SDS011;48641;51.676;5.808;2023-12-20T14:33:58;5.53;;;1.20;;
62582;SDS011;48641;51.676;5.808;2023-12-20T14:36:26;7.97;;;1.23;;
62582;SDS011;48641;51.676;5.808;2023-12-20T14:38:52;5.60;;;1.08;;
62582;SDS011;48641;51.676;5.808;2023-12-20T14:41:18;3.13;;;1.10;;
62582;SDS011;48641;51.676;5.808;2023-12-20T14:43:44;4.57;;;1.10;;
62582;SDS011;48641;51.676;5.808;2023-12-20T14:46:10;6.53;;;1.50;;
62582;SDS011;48641;51.676;5.808;2023-12-20T14:48:35;5.25;;;1.50;;
62582;SDS011;48641;51.676;5.808;2023-12-20T14:51:01;7.65;;;1.20;;
62582;SDS011;48641;51.676;5.808;2023-12-20T14:53:27;5.90;;;1.02;;